10:41
Airports
History
Links
Donate
Help keep this website running!
PayPal
Bitcoin
Information on this page is community maintained and may be outdated or inaccurate and is intended for reference only or PC simulator navigating.
Always use approved charts for navigating.
SNAF
Fazenda Agua Comprida
Fazenda Agua Comprida (SNAF)
Água Comprida, Minas Gerais, Brazil (38110)
4
Lat/Lng:19° 56' 49" S / 48° 2' 1" W
-19.946944 / -48.033611
Elevation:2211'ft 674mMSL
ID / ICAO:SNAF
Runways:1
Longest:(10-28) 643.7m 2,112ft Grass
Distance To
Airport ID:
Nearby WeatherUpdated 05-25-17 09:00 GMT
Nearby weather at SBUR, Uberaba located 13.3 nautical miles from SNAF
Altimeter: 30.15
Visibility: 6.2 statute miles
Wind: 8 knots (030°)
Temp: 20°c 68°f
Humidity: 77.8%

METAR: SBUR 250900Z 03008KT CAVOK 20/16 Q1021

(Powered by phpweather)
Runway 10 / 28
Dimensions:643.7 x 28m 2112' x 92'ft
Surface:Grass
Runway 10 [A]Runway 28 [B]
Heading:078°TH 258°TH
Lat:
Lng:
19° 56' 50.99"S
48° 2' 11.84"W
19° 56' 47.01"S
48° 1' 50.16"W
User Notes and Comments
Google Map
Nearby Airports
(C) Uberaba 13.3 NM
SBUR (WX) NNE 19°
4 Fazenda Mata Velha 14.1 NM
SIMV ENE 57°
(C) Volta Grande 14.3 NM
SNVG WSW 245°
4 Usina Delta I 16.6 NM
SNUS E 88°
(U) Junqueira 17.7 NM
SDWK ESE 102°
4 Vale dos Dinossauros 18.4 NM
SSFH NE 51°
4 Fazenda Boa Fe 23.5 NM
SNAW ENE 78°
VFR Chart
Flight Planning at SkyVector.com